sensor_id;sensor_type;location;lat;lon;timestamp;pressure;altitude;pressure_sealevel;temperature
12007;BMP180;6062;47.294;12.182;2023-02-13T00:02:08;81561.00;;;3.30
12007;BMP180;6062;47.294;12.182;2023-02-13T00:04:34;81575.00;;;3.30
12007;BMP180;6062;47.294;12.182;2023-02-13T00:07:00;81576.00;;;3.20
12007;BMP180;6062;47.294;12.182;2023-02-13T00:09:26;81562.00;;;3.20
12007;BMP180;6062;47.294;12.182;2023-02-13T00:11:51;81562.00;;;3.20
12007;BMP180;6062;47.294;12.182;2023-02-13T00:14:17;81563.00;;;3.20
12007;BMP180;6062;47.294;12.182;2023-02-13T00:16:43;81564.00;;;3.20
12007;BMP180;6062;47.294;12.182;2023-02-13T00:19:08;81570.00;;;3.20
12007;BMP180;6062;47.294;12.182;2023-02-13T00:21:34;81565.00;;;3.20
12007;BMP180;6062;47.294;12.182;2023-02-13T00:24:00;81565.00;;;3.20
12007;BMP180;6062;47.294;12.182;2023-02-13T00:26:25;81563.00;;;3.30
12007;BMP180;6062;47.294;12.182;2023-02-13T00:28:51;81554.00;;;3.30
12007;BMP180;6062;47.294;12.182;2023-02-13T00:31:20;81572.00;;;3.30
12007;BMP180;6062;47.294;12.182;2023-02-13T00:33:46;81562.00;;;3.30
12007;BMP180;6062;47.294;12.182;2023-02-13T00:36:16;81563.00;;;3.40
12007;BMP180;6062;47.294;12.182;2023-02-13T00:38:43;81555.00;;;3.40
12007;BMP180;6062;47.294;12.182;2023-02-13T00:41:09;81569.00;;;3.40
12007;BMP180;6062;47.294;12.182;2023-02-13T00:43:36;81566.00;;;3.50
12007;BMP180;6062;47.294;12.182;2023-02-13T00:46:03;81555.00;;;3.50
12007;BMP180;6062;47.294;12.182;2023-02-13T00:48:31;81569.00;;;3.50
12007;BMP180;6062;47.294;12.182;2023-02-13T00:50:58;81558.00;;;3.50
12007;BMP180;6062;47.294;12.182;2023-02-13T00:53:25;81564.00;;;3.50
12007;BMP180;6062;47.294;12.182;2023-02-13T00:55:52;81568.00;;;3.50
12007;BMP180;6062;47.294;12.182;2023-02-13T00:58:19;81557.00;;;3.50
12007;BMP180;6062;47.294;12.182;2023-02-13T01:00:45;81568.00;;;3.50
12007;BMP180;6062;47.294;12.182;2023-02-13T01:03:13;81561.00;;;3.50
12007;BMP180;6062;47.294;12.182;2023-02-13T01:05:39;81561.00;;;3.50
12007;BMP180;6062;47.294;12.182;2023-02-13T01:08:05;81559.00;;;3.50
12007;BMP180;6062;47.294;12.182;2023-02-13T01:10:31;81566.00;;;3.50
12007;BMP180;6062;47.294;12.182;2023-02-13T01:12:57;81561.00;;;3.50
12007;BMP180;6062;47.294;12.182;2023-02-13T01:15:23;81568.00;;;3.50
12007;BMP180;6062;47.294;12.182;2023-02-13T01:17:52;81564.00;;;3.50
12007;BMP180;6062;47.294;12.182;2023-02-13T01:20:18;81558.00;;;3.50
12007;BMP180;6062;47.294;12.182;2023-02-13T01:22:43;81568.00;;;3.50
12007;BMP180;6062;47.294;12.182;2023-02-13T01:25:10;81561.00;;;3.50
12007;BMP180;6062;47.294;12.182;2023-02-13T01:27:36;81565.00;;;3.50
12007;BMP180;6062;47.294;12.182;2023-02-13T01:30:05;81558.00;;;3.50
12007;BMP180;6062;47.294;12.182;2023-02-13T01:32:34;81560.00;;;3.60
12007;BMP180;6062;47.294;12.182;2023-02-13T01:35:00;81563.00;;;3.60
12007;BMP180;6062;47.294;12.182;2023-02-13T01:37:26;81559.00;;;3.60
12007;BMP180;6062;47.294;12.182;2023-02-13T01:39:51;81548.00;;;3.60
12007;BMP180;6062;47.294;12.182;2023-02-13T01:42:31;81557.00;;;3.60
12007;BMP180;6062;47.294;12.182;2023-02-13T01:45:18;81559.00;;;3.60
12007;BMP180;6062;47.294;12.182;2023-02-13T01:47:50;81556.00;;;3.60
12007;BMP180;6062;47.294;12.182;2023-02-13T01:55:57;81534.00;;;3.70
12007;BMP180;6062;47.294;12.182;2023-02-13T01:58:29;81542.00;;;3.70
12007;BMP180;6062;47.294;12.182;2023-02-13T02:00:57;81547.00;;;3.70
12007;BMP180;6062;47.294;12.182;2023-02-13T02:03:52;81544.00;;;3.80
12007;BMP180;6062;47.294;12.182;2023-02-13T02:06:36;81544.00;;;3.80
12007;BMP180;6062;47.294;12.182;2023-02-13T02:09:13;81545.00;;;3.80
12007;BMP180;6062;47.294;12.182;2023-02-13T02:12:11;81528.00;;;3.80
12007;BMP180;6062;47.294;12.182;2023-02-13T02:14:40;81539.00;;;3.80
12007;BMP180;6062;47.294;12.182;2023-02-13T02:17:06;81537.00;;;3.90
12007;BMP180;6062;47.294;12.182;2023-02-13T02:23:06;81539.00;;;3.90
12007;BMP180;6062;47.294;12.182;2023-02-13T02:25:57;81533.00;;;3.90
12007;BMP180;6062;47.294;12.182;2023-02-13T02:41:14;81535.00;;;4.00
12007;BMP180;6062;47.294;12.182;2023-02-13T02:44:32;81527.00;;;4.10
12007;BMP180;6062;47.294;12.182;2023-02-13T02:47:21;81532.00;;;4.10
12007;BMP180;6062;47.294;12.182;2023-02-13T02:50:42;81522.00;;;4.10
12007;BMP180;6062;47.294;12.182;2023-02-13T02:53:43;81529.00;;;4.10
12007;BMP180;6062;47.294;12.182;2023-02-13T02:56:24;81534.00;;;4.20
12007;BMP180;6062;47.294;12.182;2023-02-13T02:58:57;81524.00;;;4.20
12007;BMP180;6062;47.294;12.182;2023-02-13T03:01:45;81519.00;;;4.20
12007;BMP180;6062;47.294;12.182;2023-02-13T03:04:41;81532.00;;;4.30
12007;BMP180;6062;47.294;12.182;2023-02-13T03:07:26;81523.00;;;4.30
12007;BMP180;6062;47.294;12.182;2023-02-13T03:09:57;81526.00;;;4.40
12007;BMP180;6062;47.294;12.182;2023-02-13T03:12:56;81529.00;;;4.40
12007;BMP180;6062;47.294;12.182;2023-02-13T03:15:44;81523.00;;;4.40
12007;BMP180;6062;47.294;12.182;2023-02-13T03:18:34;81527.00;;;4.50
12007;BMP180;6062;47.294;12.182;2023-02-13T03:24:45;81535.00;;;4.60
12007;BMP180;6062;47.294;12.182;2023-02-13T03:27:43;81537.00;;;4.60
12007;BMP180;6062;47.294;12.182;2023-02-13T03:31:28;81537.00;;;4.60
12007;BMP180;6062;47.294;12.182;2023-02-13T03:34:11;81543.00;;;4.70
12007;BMP180;6062;47.294;12.182;2023-02-13T03:37:02;81539.00;;;4.70
12007;BMP180;6062;47.294;12.182;2023-02-13T03:45:33;81538.00;;;4.60
12007;BMP180;6062;47.294;12.182;2023-02-13T03:48:33;81544.00;;;4.60
12007;BMP180;6062;47.294;12.182;2023-02-13T03:51:30;81540.00;;;4.50
12007;BMP180;6062;47.294;12.182;2023-02-13T03:54:06;81539.00;;;4.50
12007;BMP180;6062;47.294;12.182;2023-02-13T03:56:39;81543.00;;;4.40
12007;BMP180;6062;47.294;12.182;2023-02-13T03:59:35;81544.00;;;4.40
12007;BMP180;6062;47.294;12.182;2023-02-13T04:02:12;81548.00;;;4.40
12007;BMP180;6062;47.294;12.182;2023-02-13T04:05:09;81551.00;;;4.40
12007;BMP180;6062;47.294;12.182;2023-02-13T04:07:39;81542.00;;;4.40
12007;BMP180;6062;47.294;12.182;2023-02-13T04:10:12;81545.00;;;4.40
12007;BMP180;6062;47.294;12.182;2023-02-13T04:13:44;81555.00;;;4.40
12007;BMP180;6062;47.294;12.182;2023-02-13T04:15:56;81553.00;;;4.40
12007;BMP180;6062;47.294;12.182;2023-02-13T04:18:30;81551.00;;;4.40
12007;BMP180;6062;47.294;12.182;2023-02-13T04:21:01;81552.00;;;4.40
12007;BMP180;6062;47.294;12.182;2023-02-13T04:23:27;81549.00;;;4.40
12007;BMP180;6062;47.294;12.182;2023-02-13T04:25:54;81560.00;;;4.30
12007;BMP180;6062;47.294;12.182;2023-02-13T04:28:21;81550.00;;;4.30
12007;BMP180;6062;47.294;12.182;2023-02-13T04:30:47;81551.00;;;4.20
12007;BMP180;6062;47.294;12.182;2023-02-13T04:33:14;81545.00;;;4.20
12007;BMP180;6062;47.294;12.182;2023-02-13T04:35:40;81548.00;;;4.10
12007;BMP180;6062;47.294;12.182;2023-02-13T04:38:06;81539.00;;;4.10
12007;BMP180;6062;47.294;12.182;2023-02-13T04:40:32;81552.00;;;4.00
12007;BMP180;6062;47.294;12.182;2023-02-13T04:42:58;81556.00;;;4.00
12007;BMP180;6062;47.294;12.182;2023-02-13T04:45:23;81553.00;;;3.90
12007;BMP180;6062;47.294;12.182;2023-02-13T04:47:54;81559.00;;;3.90
12007;BMP180;6062;47.294;12.182;2023-02-13T04:50:21;81554.00;;;3.90
12007;BMP180;6062;47.294;12.182;2023-02-13T04:52:51;81553.00;;;3.80
12007;BMP180;6062;47.294;12.182;2023-02-13T04:55:17;81550.00;;;3.80
12007;BMP180;6062;47.294;12.182;2023-02-13T04:57:43;81552.00;;;3.80
12007;BMP180;6062;47.294;12.182;2023-02-13T05:00:10;81555.00;;;3.80
12007;BMP180;6062;47.294;12.182;2023-02-13T05:02:36;81541.00;;;3.70
12007;BMP180;6062;47.294;12.182;2023-02-13T05:05:02;81554.00;;;3.70
12007;BMP180;6062;47.294;12.182;2023-02-13T05:07:27;81565.00;;;3.70
12007;BMP180;6062;47.294;12.182;2023-02-13T05:09:53;81560.00;;;3.60
12007;BMP180;6062;47.294;12.182;2023-02-13T05:12:19;81559.00;;;3.60
12007;BMP180;6062;47.294;12.182;2023-02-13T05:14:44;81563.00;;;3.60
12007;BMP180;6062;47.294;12.182;2023-02-13T05:17:10;81552.00;;;3.50
12007;BMP180;6062;47.294;12.182;2023-02-13T05:19:35;81546.00;;;3.50
12007;BMP180;6062;47.294;12.182;2023-02-13T05:22:01;81557.00;;;3.50
12007;BMP180;6062;47.294;12.182;2023-02-13T05:24:45;81557.00;;;3.40
12007;BMP180;6062;47.294;12.182;2023-02-13T05:27:11;81548.00;;;3.40
12007;BMP180;6062;47.294;12.182;2023-02-13T05:29:36;81555.00;;;3.30
12007;BMP180;6062;47.294;12.182;2023-02-13T05:32:02;81558.00;;;3.30
12007;BMP180;6062;47.294;12.182;2023-02-13T05:34:28;81568.00;;;3.40
12007;BMP180;6062;47.294;12.182;2023-02-13T05:36:54;81564.00;;;3.40
12007;BMP180;6062;47.294;12.182;2023-02-13T05:39:21;81557.00;;;3.50
12007;BMP180;6062;47.294;12.182;2023-02-13T05:41:47;81566.00;;;3.50
12007;BMP180;6062;47.294;12.182;2023-02-13T05:44:15;81568.00;;;3.50
12007;BMP180;6062;47.294;12.182;2023-02-13T05:46:42;81563.00;;;3.50
12007;BMP180;6062;47.294;12.182;2023-02-13T05:49:10;81568.00;;;3.50
12007;BMP180;6062;47.294;12.182;2023-02-13T05:51:36;81560.00;;;3.60
12007;BMP180;6062;47.294;12.182;2023-02-13T05:54:02;81565.00;;;3.60
12007;BMP180;6062;47.294;12.182;2023-02-13T05:56:29;81561.00;;;3.60
12007;BMP180;6062;47.294;12.182;2023-02-13T05:58:55;81568.00;;;3.70
12007;BMP180;6062;47.294;12.182;2023-02-13T06:01:22;81570.00;;;3.70
12007;BMP180;6062;47.294;12.182;2023-02-13T06:03:48;81561.00;;;3.70
12007;BMP180;6062;47.294;12.182;2023-02-13T06:06:15;81571.00;;;3.70
12007;BMP180;6062;47.294;12.182;2023-02-13T06:08:41;81566.00;;;3.70
12007;BMP180;6062;47.294;12.182;2023-02-13T06:11:07;81570.00;;;3.60
12007;BMP180;6062;47.294;12.182;2023-02-13T06:13:34;81574.00;;;3.60
12007;BMP180;6062;47.294;12.182;2023-02-13T06:15:59;81566.00;;;3.50
12007;BMP180;6062;47.294;12.182;2023-02-13T06:18:25;81571.00;;;3.50
12007;BMP180;6062;47.294;12.182;2023-02-13T06:20:51;81570.00;;;3.50
12007;BMP180;6062;47.294;12.182;2023-02-13T06:23:16;81570.00;;;3.50
12007;BMP180;6062;47.294;12.182;2023-02-13T06:25:42;81567.00;;;3.60
12007;BMP180;6062;47.294;12.182;2023-02-13T06:28:08;81570.00;;;3.60
12007;BMP180;6062;47.294;12.182;2023-02-13T06:30:34;81572.00;;;3.80
12007;BMP180;6062;47.294;12.182;2023-02-13T06:33:00;81570.00;;;3.80
12007;BMP180;6062;47.294;12.182;2023-02-13T06:35:26;81567.00;;;3.90
12007;BMP180;6062;47.294;12.182;2023-02-13T06:37:52;81582.00;;;4.10
12007;BMP180;6062;47.294;12.182;2023-02-13T06:40:18;81585.00;;;4.40
12007;BMP180;6062;47.294;12.182;2023-02-13T06:42:44;81580.00;;;4.80
12007;BMP180;6062;47.294;12.182;2023-02-13T06:45:11;81585.00;;;5.30
12007;BMP180;6062;47.294;12.182;2023-02-13T06:47:45;81587.00;;;6.00
12007;BMP180;6062;47.294;12.182;2023-02-13T06:50:14;81589.00;;;6.70
12007;BMP180;6062;47.294;12.182;2023-02-13T06:52:49;81587.00;;;7.60
12007;BMP180;6062;47.294;12.182;2023-02-13T06:55:16;81600.00;;;8.40
12007;BMP180;6062;47.294;12.182;2023-02-13T06:57:43;81591.00;;;9.30
12007;BMP180;6062;47.294;12.182;2023-02-13T07:00:11;81603.00;;;10.10
12007;BMP180;6062;47.294;12.182;2023-02-13T07:02:43;81609.00;;;11.00
12007;BMP180;6062;47.294;12.182;2023-02-13T07:05:09;81616.00;;;11.90
12007;BMP180;6062;47.294;12.182;2023-02-13T07:07:38;81627.00;;;12.80
12007;BMP180;6062;47.294;12.182;2023-02-13T07:10:06;81626.00;;;13.60
12007;BMP180;6062;47.294;12.182;2023-02-13T07:12:34;81630.00;;;14.50
12007;BMP180;6062;47.294;12.182;2023-02-13T07:15:04;81634.00;;;15.20
12007;BMP180;6062;47.294;12.182;2023-02-13T07:17:30;81636.00;;;15.90
12007;BMP180;6062;47.294;12.182;2023-02-13T07:19:56;81633.00;;;16.60
12007;BMP180;6062;47.294;12.182;2023-02-13T07:22:22;81635.00;;;17.20
12007;BMP180;6062;47.294;12.182;2023-02-13T07:24:48;81643.00;;;17.80
12007;BMP180;6062;47.294;12.182;2023-02-13T07:27:13;81639.00;;;18.50
12007;BMP180;6062;47.294;12.182;2023-02-13T07:29:39;81638.00;;;19.20
12007;BMP180;6062;47.294;12.182;2023-02-13T07:32:04;81643.00;;;19.80
12007;BMP180;6062;47.294;12.182;2023-02-13T07:34:32;81649.00;;;20.50
12007;BMP180;6062;47.294;12.182;2023-02-13T07:36:57;81651.00;;;21.20
12007;BMP180;6062;47.294;12.182;2023-02-13T07:39:23;81650.00;;;21.90
12007;BMP180;6062;47.294;12.182;2023-02-13T07:41:50;81653.00;;;22.50
12007;BMP180;6062;47.294;12.182;2023-02-13T07:44:16;81649.00;;;23.10
12007;BMP180;6062;47.294;12.182;2023-02-13T07:46:42;81652.00;;;23.70
12007;BMP180;6062;47.294;12.182;2023-02-13T07:49:08;81658.00;;;24.30
12007;BMP180;6062;47.294;12.182;2023-02-13T07:51:33;81650.00;;;24.80
12007;BMP180;6062;47.294;12.182;2023-02-13T07:54:01;81660.00;;;25.40
12007;BMP180;6062;47.294;12.182;2023-02-13T07:56:27;81663.00;;;25.90
12007;BMP180;6062;47.294;12.182;2023-02-13T07:58:52;81667.00;;;26.40
12007;BMP180;6062;47.294;12.182;2023-02-13T08:01:18;81666.00;;;26.80
12007;BMP180;6062;47.294;12.182;2023-02-13T08:03:48;81664.00;;;27.20
12007;BMP180;6062;47.294;12.182;2023-02-13T08:06:18;81674.00;;;27.60
12007;BMP180;6062;47.294;12.182;2023-02-13T08:08:44;81678.00;;;27.90
12007;BMP180;6062;47.294;12.182;2023-02-13T08:11:30;81674.00;;;28.20
12007;BMP180;6062;47.294;12.182;2023-02-13T08:14:16;81678.00;;;28.60
12007;BMP180;6062;47.294;12.182;2023-02-13T08:16:41;81680.00;;;28.80
12007;BMP180;6062;47.294;12.182;2023-02-13T08:19:07;81681.00;;;29.00
12007;BMP180;6062;47.294;12.182;2023-02-13T08:21:33;81690.00;;;29.20
12007;BMP180;6062;47.294;12.182;2023-02-13T08:23:59;81684.00;;;29.40
12007;BMP180;6062;47.294;12.182;2023-02-13T08:26:25;81685.00;;;29.60
12007;BMP180;6062;47.294;12.182;2023-02-13T08:28:51;81686.00;;;29.80
12007;BMP180;6062;47.294;12.182;2023-02-13T08:31:17;81691.00;;;30.00
12007;BMP180;6062;47.294;12.182;2023-02-13T08:33:43;81690.00;;;30.20
12007;BMP180;6062;47.294;12.182;2023-02-13T08:36:08;81697.00;;;30.30
12007;BMP180;6062;47.294;12.182;2023-02-13T08:38:34;81691.00;;;30.50
12007;BMP180;6062;47.294;12.182;2023-02-13T08:41:00;81690.00;;;30.70
12007;BMP180;6062;47.294;12.182;2023-02-13T08:43:25;81694.00;;;30.90
12007;BMP180;6062;47.294;12.182;2023-02-13T08:45:51;81698.00;;;31.10
12007;BMP180;6062;47.294;12.182;2023-02-13T08:48:17;81689.00;;;31.20
12007;BMP180;6062;47.294;12.182;2023-02-13T08:50:43;81701.00;;;31.40
12007;BMP180;6062;47.294;12.182;2023-02-13T08:53:08;81693.00;;;31.60
12007;BMP180;6062;47.294;12.182;2023-02-13T08:55:34;81696.00;;;31.80
12007;BMP180;6062;47.294;12.182;2023-02-13T08:58:04;81704.00;;;31.90
12007;BMP180;6062;47.294;12.182;2023-02-13T09:00:30;81703.00;;;32.00
12007;BMP180;6062;47.294;12.182;2023-02-13T09:03:00;81700.00;;;32.10
12007;BMP180;6062;47.294;12.182;2023-02-13T09:05:28;81706.00;;;32.20
12007;BMP180;6062;47.294;12.182;2023-02-13T09:07:58;81702.00;;;32.30
12007;BMP180;6062;47.294;12.182;2023-02-13T09:10:24;81712.00;;;32.40
12007;BMP180;6062;47.294;12.182;2023-02-13T09:12:53;81715.00;;;32.50
12007;BMP180;6062;47.294;12.182;2023-02-13T09:15:19;81711.00;;;32.60
12007;BMP180;6062;47.294;12.182;2023-02-13T09:17:45;81716.00;;;32.70
12007;BMP180;6062;47.294;12.182;2023-02-13T09:20:12;81714.00;;;32.70
12007;BMP180;6062;47.294;12.182;2023-02-13T09:22:39;81719.00;;;32.80
12007;BMP180;6062;47.294;12.182;2023-02-13T09:25:06;81720.00;;;32.90
12007;BMP180;6062;47.294;12.182;2023-02-13T09:27:33;81717.00;;;33.00
12007;BMP180;6062;47.294;12.182;2023-02-13T09:29:59;81723.00;;;33.00
12007;BMP180;6062;47.294;12.182;2023-02-13T09:32:25;81722.00;;;33.10
12007;BMP180;6062;47.294;12.182;2023-02-13T09:34:51;81723.00;;;33.10
12007;BMP180;6062;47.294;12.182;2023-02-13T09:37:17;81735.00;;;33.20
12007;BMP180;6062;47.294;12.182;2023-02-13T09:39:43;81725.00;;;33.20
12007;BMP180;6062;47.294;12.182;2023-02-13T09:42:18;81730.00;;;33.20
12007;BMP180;6062;47.294;12.182;2023-02-13T09:44:47;81735.00;;;33.30
12007;BMP180;6062;47.294;12.182;2023-02-13T09:49:52;81726.00;;;33.40
12007;BMP180;6062;47.294;12.182;2023-02-13T09:52:19;81725.00;;;33.50
12007;BMP180;6062;47.294;12.182;2023-02-13T09:54:45;81725.00;;;33.60
12007;BMP180;6062;47.294;12.182;2023-02-13T09:57:33;81733.00;;;33.70
12007;BMP180;6062;47.294;12.182;2023-02-13T10:00:16;81733.00;;;33.70
12007;BMP180;6062;47.294;12.182;2023-02-13T10:05:39;81740.00;;;33.80
12007;BMP180;6062;47.294;12.182;2023-02-13T10:09:01;81746.00;;;33.90
12007;BMP180;6062;47.294;12.182;2023-02-13T10:17:16;81751.00;;;33.90
12007;BMP180;6062;47.294;12.182;2023-02-13T10:19:53;81742.00;;;33.90
12007;BMP180;6062;47.294;12.182;2023-02-13T10:25:20;81743.00;;;34.00
12007;BMP180;6062;47.294;12.182;2023-02-13T10:28:10;81742.00;;;34.10
12007;BMP180;6062;47.294;12.182;2023-02-13T10:30:49;81742.00;;;34.20
12007;BMP180;6062;47.294;12.182;2023-02-13T10:33:51;81748.00;;;34.20
12007;BMP180;6062;47.294;12.182;2023-02-13T10:36:29;81747.00;;;34.30
12007;BMP180;6062;47.294;12.182;2023-02-13T10:41:53;81745.00;;;34.40
12007;BMP180;6062;47.294;12.182;2023-02-13T10:50:21;81739.00;;;34.20
12007;BMP180;6062;47.294;12.182;2023-02-13T10:53:14;81738.00;;;34.10
12007;BMP180;6062;47.294;12.182;2023-02-13T11:01:52;81738.00;;;33.80
12007;BMP180;6062;47.294;12.182;2023-02-13T11:04:20;81739.00;;;33.70
12007;BMP180;6062;47.294;12.182;2023-02-13T11:09:20;81727.00;;;33.60
12007;BMP180;6062;47.294;12.182;2023-02-13T11:11:45;81740.00;;;33.60
12007;BMP180;6062;47.294;12.182;2023-02-13T11:14:16;81730.00;;;33.40
12007;BMP180;6062;47.294;12.182;2023-02-13T11:16:57;81727.00;;;33.20
12007;BMP180;6062;47.294;12.182;2023-02-13T12:54:57;81731.00;;;26.40
12007;BMP180;6062;47.294;12.182;2023-02-13T12:57:57;81723.00;;;25.70
12007;BMP180;6062;47.294;12.182;2023-02-13T13:13:31;81729.00;;;21.90
12007;BMP180;6062;47.294;12.182;2023-02-13T13:16:21;81725.00;;;21.30
12007;BMP180;6062;47.294;12.182;2023-02-13T13:21:50;81721.00;;;20.20
12007;BMP180;6062;47.294;12.182;2023-02-13T13:27:35;81704.00;;;19.20
12007;BMP180;6062;47.294;12.182;2023-02-13T13:30:18;81711.00;;;18.80
12007;BMP180;6062;47.294;12.182;2023-02-13T13:32:51;81714.00;;;18.40
12007;BMP180;6062;47.294;12.182;2023-02-13T13:35:20;81714.00;;;18.10
12007;BMP180;6062;47.294;12.182;2023-02-13T13:38:04;81709.00;;;17.70
12007;BMP180;6062;47.294;12.182;2023-02-13T13:52:28;81707.00;;;16.00
12007;BMP180;6062;47.294;12.182;2023-02-13T13:54:57;81706.00;;;15.80
12007;BMP180;6062;47.294;12.182;2023-02-13T13:57:26;81709.00;;;15.50
12007;BMP180;6062;47.294;12.182;2023-02-13T14:00:23;81700.00;;;15.30
12007;BMP180;6062;47.294;12.182;2023-02-13T14:03:52;81701.00;;;15.00
12007;BMP180;6062;47.294;12.182;2023-02-13T14:06:06;81709.00;;;14.70
12007;BMP180;6062;47.294;12.182;2023-02-13T14:11:05;81709.00;;;14.20
12007;BMP180;6062;47.294;12.182;2023-02-13T14:13:48;81708.00;;;14.00
12007;BMP180;6062;47.294;12.182;2023-02-13T14:16:44;81704.00;;;13.80
12007;BMP180;6062;47.294;12.182;2023-02-13T14:19:29;81710.00;;;13.70
12007;BMP180;6062;47.294;12.182;2023-02-13T14:24:58;81697.00;;;13.30
12007;BMP180;6062;47.294;12.182;2023-02-13T14:27:55;81692.00;;;13.10
12007;BMP180;6062;47.294;12.182;2023-02-13T14:30:29;81691.00;;;12.90
12007;BMP180;6062;47.294;12.182;2023-02-13T14:33:00;81692.00;;;12.80
12007;BMP180;6062;47.294;12.182;2023-02-13T14:35:34;81684.00;;;12.60
12007;BMP180;6062;47.294;12.182;2023-02-13T14:38:05;81691.00;;;12.40
12007;BMP180;6062;47.294;12.182;2023-02-13T14:40:49;81685.00;;;12.30
12007;BMP180;6062;47.294;12.182;2023-02-13T14:43:36;81695.00;;;12.10
12007;BMP180;6062;47.294;12.182;2023-02-13T14:48:47;81693.00;;;11.80
12007;BMP180;6062;47.294;12.182;2023-02-13T14:51:35;81690.00;;;11.60
12007;BMP180;6062;47.294;12.182;2023-02-13T14:54:24;81682.00;;;11.40
12007;BMP180;6062;47.294;12.182;2023-02-13T14:56:58;81689.00;;;11.20
12007;BMP180;6062;47.294;12.182;2023-02-13T14:59:30;81680.00;;;11.00
12007;BMP180;6062;47.294;12.182;2023-02-13T15:05:00;81690.00;;;10.60
12007;BMP180;6062;47.294;12.182;2023-02-13T15:07:35;81688.00;;;10.40
12007;BMP180;6062;47.294;12.182;2023-02-13T15:12:37;81686.00;;;10.10
12007;BMP180;6062;47.294;12.182;2023-02-13T15:15:26;81682.00;;;10.00
12007;BMP180;6062;47.294;12.182;2023-02-13T15:18:01;81690.00;;;9.80
12007;BMP180;6062;47.294;12.182;2023-02-13T15:20:33;81691.00;;;9.70
12007;BMP180;6062;47.294;12.182;2023-02-13T15:22:59;81694.00;;;9.60
12007;BMP180;6062;47.294;12.182;2023-02-13T15:27:54;81697.00;;;9.40
12007;BMP180;6062;47.294;12.182;2023-02-13T15:30:36;81697.00;;;9.40
12007;BMP180;6062;47.294;12.182;2023-02-13T15:33:20;81700.00;;;9.30
12007;BMP180;6062;47.294;12.182;2023-02-13T15:36:04;81703.00;;;9.30
12007;BMP180;6062;47.294;12.182;2023-02-13T15:38:35;81701.00;;;9.30
12007;BMP180;6062;47.294;12.182;2023-02-13T15:41:18;81705.00;;;9.20
12007;BMP180;6062;47.294;12.182;2023-02-13T15:43:55;81699.00;;;9.20
12007;BMP180;6062;47.294;12.182;2023-02-13T15:46:27;81695.00;;;9.10
12007;BMP180;6062;47.294;12.182;2023-02-13T15:48:57;81701.00;;;9.00
12007;BMP180;6062;47.294;12.182;2023-02-13T15:51:27;81697.00;;;9.00
12007;BMP180;6062;47.294;12.182;2023-02-13T15:53:56;81705.00;;;8.90
12007;BMP180;6062;47.294;12.182;2023-02-13T15:56:24;81697.00;;;8.80
12007;BMP180;6062;47.294;12.182;2023-02-13T15:58:51;81704.00;;;8.80
12007;BMP180;6062;47.294;12.182;2023-02-13T16:01:18;81694.00;;;8.70
12007;BMP180;6062;47.294;12.182;2023-02-13T16:03:48;81702.00;;;8.60
12007;BMP180;6062;47.294;12.182;2023-02-13T16:06:18;81705.00;;;8.50
12007;BMP180;6062;47.294;12.182;2023-02-13T16:08:56;81707.00;;;8.40
12007;BMP180;6062;47.294;12.182;2023-02-13T16:11:29;81704.00;;;8.30
12007;BMP180;6062;47.294;12.182;2023-02-13T16:14:23;81703.00;;;8.10
12007;BMP180;6062;47.294;12.182;2023-02-13T16:19:36;81709.00;;;7.90
12007;BMP180;6062;47.294;12.182;2023-02-13T16:27:49;81713.00;;;7.60
12007;BMP180;6062;47.294;12.182;2023-02-13T16:30:40;81716.00;;;7.50
12007;BMP180;6062;47.294;12.182;2023-02-13T16:38:45;81719.00;;;7.30
12007;BMP180;6062;47.294;12.182;2023-02-13T16:43:55;81724.00;;;7.20
12007;BMP180;6062;47.294;12.182;2023-02-13T16:49:25;81726.00;;;7.10
12007;BMP180;6062;47.294;12.182;2023-02-13T16:52:08;81726.00;;;7.00
12007;BMP180;6062;47.294;12.182;2023-02-13T16:54:52;81730.00;;;7.00
12007;BMP180;6062;47.294;12.182;2023-02-13T16:57:27;81733.00;;;6.90
12007;BMP180;6062;47.294;12.182;2023-02-13T17:00:16;81730.00;;;6.80
12007;BMP180;6062;47.294;12.182;2023-02-13T17:02:45;81734.00;;;6.70
12007;BMP180;6062;47.294;12.182;2023-02-13T17:05:26;81742.00;;;6.70
12007;BMP180;6062;47.294;12.182;2023-02-13T17:07:54;81738.00;;;6.70
12007;BMP180;6062;47.294;12.182;2023-02-13T17:10:30;81737.00;;;6.70
12007;BMP180;6062;47.294;12.182;2023-02-13T17:15:33;81743.00;;;6.60
12007;BMP180;6062;47.294;12.182;2023-02-13T17:17:59;81745.00;;;6.60
12007;BMP180;6062;47.294;12.182;2023-02-13T17:20:34;81747.00;;;6.50
12007;BMP180;6062;47.294;12.182;2023-02-13T17:23:03;81754.00;;;6.50
12007;BMP180;6062;47.294;12.182;2023-02-13T17:25:36;81753.00;;;6.40
12007;BMP180;6062;47.294;12.182;2023-02-13T17:28:18;81741.00;;;6.40
12007;BMP180;6062;47.294;12.182;2023-02-13T17:30:47;81747.00;;;6.30
12007;BMP180;6062;47.294;12.182;2023-02-13T17:33:21;81740.00;;;6.20
12007;BMP180;6062;47.294;12.182;2023-02-13T17:35:47;81745.00;;;6.20
12007;BMP180;6062;47.294;12.182;2023-02-13T17:38:13;81742.00;;;6.10
12007;BMP180;6062;47.294;12.182;2023-02-13T17:40:40;81744.00;;;6.10
12007;BMP180;6062;47.294;12.182;2023-02-13T17:43:06;81742.00;;;6.10
12007;BMP180;6062;47.294;12.182;2023-02-13T17:45:34;81745.00;;;6.10
12007;BMP180;6062;47.294;12.182;2023-02-13T17:48:00;81735.00;;;6.00
12007;BMP180;6062;47.294;12.182;2023-02-13T17:50:27;81739.00;;;6.00
12007;BMP180;6062;47.294;12.182;2023-02-13T17:52:54;81741.00;;;5.90
12007;BMP180;6062;47.294;12.182;2023-02-13T17:55:24;81740.00;;;5.90
12007;BMP180;6062;47.294;12.182;2023-02-13T17:57:52;81745.00;;;5.90
12007;BMP180;6062;47.294;12.182;2023-02-13T18:00:23;81754.00;;;5.90
12007;BMP180;6062;47.294;12.182;2023-02-13T18:02:50;81754.00;;;5.90
12007;BMP180;6062;47.294;12.182;2023-02-13T18:05:17;81751.00;;;5.90
12007;BMP180;6062;47.294;12.182;2023-02-13T18:07:44;81742.00;;;6.00
12007;BMP180;6062;47.294;12.182;2023-02-13T18:10:17;81742.00;;;6.00
12007;BMP180;6062;47.294;12.182;2023-02-13T18:12:44;81741.00;;;6.00
12007;BMP180;6062;47.294;12.182;2023-02-13T18:15:11;81749.00;;;6.00
12007;BMP180;6062;47.294;12.182;2023-02-13T18:17:37;81737.00;;;6.00
12007;BMP180;6062;47.294;12.182;2023-02-13T18:20:10;81748.00;;;6.00
12007;BMP180;6062;47.294;12.182;2023-02-13T18:22:36;81741.00;;;6.00
12007;BMP180;6062;47.294;12.182;2023-02-13T18:25:03;81731.00;;;6.00
12007;BMP180;6062;47.294;12.182;2023-02-13T18:27:29;81737.00;;;6.00
12007;BMP180;6062;47.294;12.182;2023-02-13T18:29:55;81733.00;;;6.00
12007;BMP180;6062;47.294;12.182;2023-02-13T18:32:22;81725.00;;;6.00
12007;BMP180;6062;47.294;12.182;2023-02-13T18:34:48;81735.00;;;5.90